Commodore Goodwill — C6NU8 — position and weather

sailwx.info

Track history (hours):
 
Tides and Currents Weather Stations Pressure Air Temp Water Temp Dewpoint Dewpoint Depression Visibility Wind Speed Wind Dir Waves Ship Positions

Commodore Goodwill

Operator: Condor Marine Services

Last reported at 2017-May-28 06:25 UTC. Time now 2017-May-28 06:48 UTC.
Position N 49°10' W 002°15'.

Length 126 m; draft 5.1 m.

Type: Ship (hazmat cat C). MMSI: 309536000.

Date/timePositionNaut miles runAvg speedWind from/ knotsBaromVisibWave heightAir tempDewpointWater temp
2017-May-28 06:25N 49°10' W 002°15'511.5
2017-May-28 05:57N 49°11' W 002°07'0 0.0
2017-May-28 04:53N 49°11' W 002°07'80 2.5
2017-May-26 20:33N 50°25' W 001°19'115.4
2017-May-26 20:30N 50°26' W 001°18'1114.8
2017-May-26 19:45N 50°35' W 001°09'414.7
2017-May-26 19:30N 50°38' W 001°06'713.5
2017-May-26 19:01N 50°45' W 001°05'4 8.3
2017-May-26 18:31N 50°49' W 001°06'0 0.0
2017-May-26 18:00N 50°49' W 001°06'0 0.0
2017-May-26 17:30N 50°49' W 001°06'0 0.0
2017-May-26 17:00N 50°49' W 001°06'0 0.0
2017-May-26 16:30N 50°49' W 001°06'0 0.0
2017-May-26 16:00N 50°49' W 001°06'0 0.0
2017-May-26 15:30N 50°49' W 001°06'2 4.0
2017-May-26 15:00N 50°47' W 001°06'713.3
2017-May-26 14:30N 50°40' W 001°04'1313.4
2017-May-26 13:30N 50°30' W 001°17'813.3
2017-May-26 12:56N 50°23' W 001°22'613.1
2017-May-26 12:30N 50°18' W 001°27'19 1.1
2017-May-25 20:00N 50°33' W 001°10'612.7
2017-May-25 19:30N 50°39' W 001°05'612.3
2017-May-25 19:01N 50°45' W 001°05'4 7.7
2017-May-25 18:30N 50°49' W 001°06'0 0.0
2017-May-25 18:00N 50°49' W 001°06'0 0.0
2017-May-25 17:30N 50°49' W 001°06'0 0.0
2017-May-25 17:00N 50°49' W 001°06'0 0.0
2017-May-25 16:31N 50°49' W 001°06'0 0.0
2017-May-25 16:00N 50°49' W 001°06'0 0.0
2017-May-25 15:30N 50°49' W 001°06'2 4.2
2017-May-25 15:01N 50°47' W 001°06'1211.9
2017-May-25 14:00N 50°35' W 001°07'1013.3
2017-May-25 13:16N 50°27' W 001°15'414.3
2017-May-25 13:00N 50°24' W 001°19'713.1
2017-May-25 12:30N 50°18' W 001°25'713.4
2017-May-25 12:00N 50°13' W 001°31'713.9
2017-May-25 11:31N 50°08' W 001°39'815.2
2017-May-25 11:00N 50°03' W 001°48'816.8
2017-May-25 10:30N 49°58' W 001°58'1217.4
2017-May-25 09:49N 49°46' W 002°02'917.6
2017-May-25 09:19N 49°38' W 002°08'517.2
2017-May-25 09:00N 49°33' W 002°10'1019.5
2017-May-25 08:28N 49°23' W 002°16'82 6.8
2017-May-24 20:18N 50°34' W 001°10'515.3
2017-May-24 20:00N 50°38' W 001°06'713.8
2017-May-24 19:31N 50°44' W 001°05'4 8.7
2017-May-24 19:01N 50°49' W 001°06'0 0.0
2017-May-24 18:30N 50°49' W 001°06'0 0.0
2017-May-24 18:01N 50°49' W 001°06'0 0.0
2017-May-24 17:30N 50°49' W 001°06'0 0.0
2017-May-24 17:01N 50°49' W 001°06'0 0.0
2017-May-24 16:30N 50°49' W 001°06'0 0.0
2017-May-24 16:01N 50°49' W 001°06'0 0.0
2017-May-24 15:31N 50°49' W 001°06'2 4.0
2017-May-24 15:01N 50°47' W 001°06'714.4
2017-May-24 14:31N 50°41' W 001°00'5215.2
2017-May-24 11:03N 49°58' W 001°48'116.1
2017-May-24 11:00N 49°57' W 001°49'49 7.9
2017-May-24 04:48N 49°10' W 002°08'716.6
2017-May-24 04:25N 49°10' W 002°18'8810.9
2017-May-23 20:21N 50°28' W 001°16'716.4
2017-May-23 19:55N 50°34' W 001°10'716.0
2017-May-23 19:27N 50°40' W 001°04'715.0
2017-May-23 19:00N 50°47' W 001°06'2 3.9
2017-May-23 18:30N 50°49' W 001°06'0 0.0
2017-May-23 18:01N 50°49' W 001°06'0 0.0
2017-May-23 17:31N 50°49' W 001°06'0 0.0
2017-May-23 17:01N 50°49' W 001°06'0 0.0
2017-May-23 16:30N 50°49' W 001°06'0 0.0
2017-May-23 16:00N 50°49' W 001°06'1 2.0
2017-May-23 15:30N 50°48' W 001°07'5 9.4
2017-May-23 15:00N 50°44' W 001°03'713.3
2017-May-23 14:30N 50°37' W 001°04'89 7.0
2017-May-23 01:49N 49°27' W 002°31'411.6
2017-May-23 01:28N 49°27' W 002°24'7814.3
2017-May-22 20:02N 50°30' W 001°14'217.3
2017-May-22 19:54N 50°32' W 001°12'1017.0
2017-May-22 19:18N 50°41' W 001°03'413.8
2017-May-22 19:00N 50°44' W 001°05'4 8.6
2017-May-22 18:31N 50°49' W 001°06'0 0.6
2017-May-22 18:01N 50°49' W 001°06'0 0.0
2017-May-22 17:30N 50°49' W 001°06'0 0.0
2017-May-22 17:00N 50°49' W 001°06'0 0.0
2017-May-22 16:30N 50°49' W 001°06'0 0.0
2017-May-22 16:01N 50°49' W 001°06'0 0.0
2017-May-22 15:30N 50°49' W 001°06'1 2.2
2017-May-22 15:01N 50°48' W 001°07'714.5
2017-May-22 14:30N 50°42' W 001°01'816.7
2017-May-22 14:00N 50°35' W 001°08'9315.5
2017-May-22 07:58N 49°15' W 002°22'1016.1
2017-May-22 07:19N 49°10' W 002°08'89 7.5
2017-May-21 19:29N 50°32' W 001°13'918.1
2017-May-21 18:57N 50°40' W 001°05'614.3
2017-May-21 18:30N 50°46' W 001°05'3 5.4
2017-May-21 18:00N 50°49' W 001°06'0 0.0
2017-May-21 17:30N 50°49' W 001°06'0 0.0
2017-May-21 17:00N 50°49' W 001°06'0 0.0
2017-May-21 16:30N 50°49' W 001°06'0 0.0
2017-May-21 16:00N 50°49' W 001°06'0 0.0
2017-May-21 15:31N 50°49' W 001°06'0 0.0
2017-May-21 15:01N 50°49' W 001°06'0 0.0
2017-May-21 14:30N 50°49' W 001°06'0 0.0
2017-May-21 13:30N 50°49' W 001°06'0 0.0
2017-May-21 13:00N 50°49' W 001°06'0 0.0
2017-May-21 12:30N 50°49' W 001°06'0 0.0
2017-May-21 12:00N 50°49' W 001°06'0 0.0
2017-May-21 11:30N 50°49' W 001°06'0 0.0
2017-May-21 11:00N 50°49' W 001°06'0 0.0
2017-May-21 10:30N 50°49' W 001°06'0 0.0
2017-May-21 10:00N 50°49' W 001°06'0 0.0
2017-May-21 09:30N 50°49' W 001°06'0 0.0
2017-May-21 09:00N 50°49' W 001°06'0 0.0
2017-May-21 08:30N 50°49' W 001°06'1 2.6
2017-May-21 08:00N 50°48' W 001°07'815.0
2017-May-21 07:30N 50°40' W 001°04'11 0.3
2017-May-19 19:54N 50°31' W 001°14'614.1
2017-May-19 19:30N 50°35' W 001°09'714.0
2017-May-19 19:00N 50°41' W 001°03'714.5
2017-May-19 18:31N 50°48' W 001°07'1 2.4
2017-May-19 18:00N 50°49' W 001°06'0 0.0
2017-May-19 17:30N 50°49' W 001°06'0 0.0
2017-May-19 17:00N 50°49' W 001°06'0 0.0
2017-May-19 16:30N 50°49' W 001°06'0 0.0
2017-May-19 16:00N 50°49' W 001°06'0 0.0
2017-May-19 15:30N 50°49' W 001°06'2 3.4
2017-May-19 15:00N 50°47' W 001°06'1615.3
2017-May-19 13:59N 50°32' W 001°12'0 0.0
2017-May-18 19:58N 50°32' W 001°12'918.7
2017-May-18 19:30N 50°39' W 001°05'715.1
2017-May-18 19:01N 50°47' W 001°06'2 3.9
2017-May-18 18:30N 50°49' W 001°06'0 0.0
2017-May-18 18:01N 50°49' W 001°06'0 0.0
2017-May-18 17:31N 50°49' W 001°06'0 0.0
2017-May-18 17:00N 50°49' W 001°06'0 0.0
2017-May-18 16:30N 50°49' W 001°06'0 0.0
2017-May-18 16:01N 50°49' W 001°06'0 0.0
2017-May-18 15:30N 50°49' W 001°06'2 3.1
2017-May-18 15:01N 50°47' W 001°07'  
Track history (hours):
 
Tides and Currents Weather Stations Pressure Air Temp Water Temp Dewpoint Dewpoint Depression Visibility Wind Speed Wind Dir Waves Ship Positions

Commodore Goodwill

Operator: Condor Marine Services

Last reported at 2017-May-28 06:25 UTC. Time now 2017-May-28 06:48 UTC.
Position N 49°10' W 002°15'.

Length 126 m; draft 5.1 m.

Type: Ship (hazmat cat C). MMSI: 309536000.

Date/timePositionNaut miles runAvg speedWind from/ knotsBaromVisibWave heightAir tempDewpointWater temp
2017-May-28 06:25N 49°10' W 002°15'511.5
2017-May-28 05:57N 49°11' W 002°07'0 0.0
2017-May-28 04:53N 49°11' W 002°07'80 2.5
2017-May-26 20:33N 50°25' W 001°19'115.4
2017-May-26 20:30N 50°26' W 001°18'1114.8
2017-May-26 19:45N 50°35' W 001°09'414.7
2017-May-26 19:30N 50°38' W 001°06'713.5
2017-May-26 19:01N 50°45' W 001°05'4 8.3
2017-May-26 18:31N 50°49' W 001°06'0 0.0
2017-May-26 18:00N 50°49' W 001°06'0 0.0
2017-May-26 17:30N 50°49' W 001°06'0 0.0
2017-May-26 17:00N 50°49' W 001°06'0 0.0
2017-May-26 16:30N 50°49' W 001°06'0 0.0
2017-May-26 16:00N 50°49' W 001°06'0 0.0
2017-May-26 15:30N 50°49' W 001°06'2 4.0
2017-May-26 15:00N 50°47' W 001°06'713.3
2017-May-26 14:30N 50°40' W 001°04'1313.4
2017-May-26 13:30N 50°30' W 001°17'813.3
2017-May-26 12:56N 50°23' W 001°22'613.1
2017-May-26 12:30N 50°18' W 001°27'19 1.1
2017-May-25 20:00N 50°33' W 001°10'612.7
2017-May-25 19:30N 50°39' W 001°05'612.3
2017-May-25 19:01N 50°45' W 001°05'4 7.7
2017-May-25 18:30N 50°49' W 001°06'0 0.0
2017-May-25 18:00N 50°49' W 001°06'0 0.0
2017-May-25 17:30N 50°49' W 001°06'0 0.0
2017-May-25 17:00N 50°49' W 001°06'0 0.0
2017-May-25 16:31N 50°49' W 001°06'0 0.0
2017-May-25 16:00N 50°49' W 001°06'0 0.0
2017-May-25 15:30N 50°49' W 001°06'2 4.2
2017-May-25 15:01N 50°47' W 001°06'1211.9
2017-May-25 14:00N 50°35' W 001°07'1013.3
2017-May-25 13:16N 50°27' W 001°15'414.3
2017-May-25 13:00N 50°24' W 001°19'713.1
2017-May-25 12:30N 50°18' W 001°25'713.4
2017-May-25 12:00N 50°13' W 001°31'713.9
2017-May-25 11:31N 50°08' W 001°39'815.2
2017-May-25 11:00N 50°03' W 001°48'816.8
2017-May-25 10:30N 49°58' W 001°58'1217.4
2017-May-25 09:49N 49°46' W 002°02'917.6
2017-May-25 09:19N 49°38' W 002°08'517.2
2017-May-25 09:00N 49°33' W 002°10'1019.5
2017-May-25 08:28N 49°23' W 002°16'82 6.8
2017-May-24 20:18N 50°34' W 001°10'515.3
2017-May-24 20:00N 50°38' W 001°06'713.8
2017-May-24 19:31N 50°44' W 001°05'4 8.7
2017-May-24 19:01N 50°49' W 001°06'0 0.0
2017-May-24 18:30N 50°49' W 001°06'0 0.0
2017-May-24 18:01N 50°49' W 001°06'0 0.0
2017-May-24 17:30N 50°49' W 001°06'0 0.0
2017-May-24 17:01N 50°49' W 001°06'0 0.0
2017-May-24 16:30N 50°49' W 001°06'0 0.0
2017-May-24 16:01N 50°49' W 001°06'0 0.0
2017-May-24 15:31N 50°49' W 001°06'2 4.0
2017-May-24 15:01N 50°47' W 001°06'714.4
2017-May-24 14:31N 50°41' W 001°00'5215.2
2017-May-24 11:03N 49°58' W 001°48'116.1
2017-May-24 11:00N 49°57' W 001°49'49 7.9
2017-May-24 04:48N 49°10' W 002°08'716.6
2017-May-24 04:25N 49°10' W 002°18'8810.9
2017-May-23 20:21N 50°28' W 001°16'716.4
2017-May-23 19:55N 50°34' W 001°10'716.0
2017-May-23 19:27N 50°40' W 001°04'715.0
2017-May-23 19:00N 50°47' W 001°06'2 3.9
2017-May-23 18:30N 50°49' W 001°06'0 0.0
2017-May-23 18:01N 50°49' W 001°06'0 0.0
2017-May-23 17:31N 50°49' W 001°06'0 0.0
2017-May-23 17:01N 50°49' W 001°06'0 0.0
2017-May-23 16:30N 50°49' W 001°06'0 0.0
2017-May-23 16:00N 50°49' W 001°06'1 2.0
2017-May-23 15:30N 50°48' W 001°07'5 9.4
2017-May-23 15:00N 50°44' W 001°03'713.3
2017-May-23 14:30N 50°37' W 001°04'89 7.0
2017-May-23 01:49N 49°27' W 002°31'411.6
2017-May-23 01:28N 49°27' W 002°24'7814.3
2017-May-22 20:02N 50°30' W 001°14'217.3
2017-May-22 19:54N 50°32' W 001°12'1017.0
2017-May-22 19:18N 50°41' W 001°03'413.8
2017-May-22 19:00N 50°44' W 001°05'4 8.6
2017-May-22 18:31N 50°49' W 001°06'0 0.6
2017-May-22 18:01N 50°49' W 001°06'0 0.0
2017-May-22 17:30N 50°49' W 001°06'0 0.0
2017-May-22 17:00N 50°49' W 001°06'0 0.0
2017-May-22 16:30N 50°49' W 001°06'0 0.0
2017-May-22 16:01N 50°49' W 001°06'0 0.0
2017-May-22 15:30N 50°49' W 001°06'1 2.2
2017-May-22 15:01N 50°48' W 001°07'714.5
2017-May-22 14:30N 50°42' W 001°01'816.7
2017-May-22 14:00N 50°35' W 001°08'9315.5
2017-May-22 07:58N 49°15' W 002°22'1016.1
2017-May-22 07:19N 49°10' W 002°08'89 7.5
2017-May-21 19:29N 50°32' W 001°13'918.1
2017-May-21 18:57N 50°40' W 001°05'614.3
2017-May-21 18:30N 50°46' W 001°05'3 5.4
2017-May-21 18:00N 50°49' W 001°06'0 0.0
2017-May-21 17:30N 50°49' W 001°06'0 0.0
2017-May-21 17:00N 50°49' W 001°06'0 0.0
2017-May-21 16:30N 50°49' W 001°06'0 0.0
2017-May-21 16:00N 50°49' W 001°06'0 0.0
2017-May-21 15:31N 50°49' W 001°06'0 0.0
2017-May-21 15:01N 50°49' W 001°06'0 0.0
2017-May-21 14:30N 50°49' W 001°06'0 0.0
2017-May-21 13:30N 50°49' W 001°06'0 0.0
2017-May-21 13:00N 50°49' W 001°06'0 0.0
2017-May-21 12:30N 50°49' W 001°06'0 0.0
2017-May-21 12:00N 50°49' W 001°06'0 0.0
2017-May-21 11:30N 50°49' W 001°06'0 0.0
2017-May-21 11:00N 50°49' W 001°06'0 0.0
2017-May-21 10:30N 50°49' W 001°06'0 0.0
2017-May-21 10:00N 50°49' W 001°06'0 0.0
2017-May-21 09:30N 50°49' W 001°06'0 0.0
2017-May-21 09:00N 50°49' W 001°06'0 0.0
2017-May-21 08:30N 50°49' W 001°06'1 2.6
2017-May-21 08:00N 50°48' W 001°07'815.0
2017-May-21 07:30N 50°40' W 001°04'11 0.3
2017-May-19 19:54N 50°31' W 001°14'614.1
2017-May-19 19:30N 50°35' W 001°09'714.0
2017-May-19 19:00N 50°41' W 001°03'714.5
2017-May-19 18:31N 50°48' W 001°07'1 2.4
2017-May-19 18:00N 50°49' W 001°06'0 0.0
2017-May-19 17:30N 50°49' W 001°06'0 0.0
2017-May-19 17:00N 50°49' W 001°06'0 0.0
2017-May-19 16:30N 50°49' W 001°06'0 0.0
2017-May-19 16:00N 50°49' W 001°06'0 0.0
2017-May-19 15:30N 50°49' W 001°06'2 3.4
2017-May-19 15:00N 50°47' W 001°06'1615.3
2017-May-19 13:59N 50°32' W 001°12'0 0.0
2017-May-18 19:58N 50°32' W 001°12'918.7
2017-May-18 19:30N 50°39' W 001°05'715.1
2017-May-18 19:01N 50°47' W 001°06'2 3.9
2017-May-18 18:30N 50°49' W 001°06'0 0.0
2017-May-18 18:01N 50°49' W 001°06'0 0.0
2017-May-18 17:31N 50°49' W 001°06'0 0.0
2017-May-18 17:00N 50°49' W 001°06'0 0.0
2017-May-18 16:30N 50°49' W 001°06'0 0.0
2017-May-18 16:01N 50°49' W 001°06'0 0.0
2017-May-18 15:30N 50°49' W 001°06'2 3.1
2017-May-18 15:01N 50°47' W 001°07'  

Dump ship's entire track history